createdAt,value
2018-10-19T00:01:43.074Z,24.60
2018-10-19T00:04:11.064Z,24.97
2018-10-19T00:06:39.078Z,26.37
2018-10-19T00:09:07.782Z,25.50
2018-10-19T00:11:35.751Z,26.50
2018-10-19T00:14:03.987Z,25.87
2018-10-19T00:16:32.002Z,29.63
2018-10-19T00:18:59.994Z,30.40
2018-10-19T00:21:27.978Z,27.83
2018-10-19T00:23:55.966Z,27.27
2018-10-19T00:26:23.973Z,28.00
2018-10-19T00:28:51.975Z,29.50
2018-10-19T00:31:20.022Z,26.57
2018-10-19T00:33:48.007Z,29.23
2018-10-19T00:38:50.486Z,29.13
2018-10-19T00:41:18.798Z,26.00
2018-10-19T00:43:46.787Z,27.10
2018-10-19T00:46:14.790Z,26.00
2018-10-19T00:48:42.777Z,25.67
2018-10-19T00:51:10.806Z,27.20
2018-10-19T00:53:38.745Z,27.83
2018-10-19T00:56:06.738Z,29.13
2018-10-19T00:58:34.750Z,28.83
2018-10-19T01:01:02.741Z,28.40
2018-10-19T01:03:30.729Z,29.93
2018-10-19T01:05:58.722Z,28.00
2018-10-19T01:08:26.718Z,25.73
2018-10-19T01:10:54.721Z,25.77
2018-10-19T01:13:22.692Z,27.47
2018-10-19T01:15:50.699Z,28.30
2018-10-19T01:18:18.691Z,25.33
2018-10-19T01:20:46.681Z,26.37
2018-10-19T01:23:14.732Z,27.60
2018-10-19T01:25:42.806Z,29.93
2018-10-19T01:28:11.334Z,26.53
2018-10-19T01:30:39.398Z,26.00
2018-10-19T01:33:07.397Z,26.00
2018-10-19T01:35:35.363Z,28.20
2018-10-19T01:38:03.363Z,29.70
2018-10-19T01:40:31.334Z,30.73
2018-10-19T01:42:59.326Z,29.87
2018-10-19T01:45:28.450Z,29.23
2018-10-19T01:47:56.486Z,28.77
2018-10-19T01:50:24.473Z,30.47
2018-10-19T01:52:52.536Z,32.77
2018-10-19T01:55:20.506Z,32.47
2018-10-19T01:57:48.497Z,30.30
2018-10-19T02:00:16.485Z,31.13
2018-10-19T02:02:44.481Z,29.50
2018-10-19T02:05:12.520Z,31.43
2018-10-19T02:07:40.469Z,30.50
2018-10-19T02:10:08.450Z,31.03
2018-10-19T02:12:36.446Z,30.97
2018-10-19T02:15:04.657Z,32.60
2018-10-19T02:17:32.649Z,27.07
2018-10-19T02:20:00.625Z,31.00
2018-10-19T02:22:28.627Z,33.02
2018-10-19T02:24:56.610Z,32.33
2018-10-19T02:27:24.611Z,32.13
2018-10-19T02:29:52.598Z,29.37
2018-10-19T02:32:20.603Z,29.13
2018-10-19T02:34:48.602Z,30.23
2018-10-19T02:37:16.610Z,30.50
2018-10-19T02:39:44.598Z,30.70
2018-10-19T02:42:12.594Z,29.63
2018-10-19T02:44:40.594Z,29.73
2018-10-19T02:47:08.626Z,32.42
2018-10-19T02:49:36.618Z,31.77
2018-10-19T02:52:04.956Z,31.02
2018-10-19T02:54:32.953Z,33.08
2018-10-19T02:57:00.996Z,33.30
2018-10-19T02:59:28.939Z,32.95
2018-10-19T03:01:56.942Z,35.23
2018-10-19T03:04:24.946Z,33.13
2018-10-19T03:06:52.930Z,31.45
2018-10-19T03:09:20.926Z,31.30
2018-10-19T03:11:48.915Z,31.07
2018-10-19T03:14:17.180Z,27.07
2018-10-19T03:16:45.650Z,29.77
2018-10-19T03:19:13.651Z,29.53
2018-10-19T03:21:41.807Z,31.63
2018-10-19T03:24:09.814Z,31.97
2018-10-19T03:26:37.794Z,33.07
2018-10-19T03:29:05.813Z,33.30
2018-10-19T03:31:33.791Z,34.80
2018-10-19T03:34:01.795Z,37.90
2018-10-19T03:36:29.787Z,34.48
2018-10-19T03:38:57.802Z,38.83
2018-10-19T03:41:25.759Z,33.30
2018-10-19T03:43:53.766Z,36.67
2018-10-19T03:46:21.766Z,33.17
2018-10-19T03:48:49.764Z,33.43
2018-10-19T03:51:17.825Z,34.20
2018-10-19T03:53:45.759Z,35.50
2018-10-19T03:56:13.749Z,31.70
2018-10-19T03:58:41.743Z,33.15
2018-10-19T04:01:09.750Z,34.18
2018-10-19T04:03:37.782Z,33.90
2018-10-19T04:06:05.739Z,39.92
2018-10-19T04:08:33.729Z,36.38
2018-10-19T04:11:01.813Z,35.48
2018-10-19T04:13:29.727Z,35.60
2018-10-19T04:15:57.710Z,34.70
2018-10-19T04:18:25.709Z,33.40
2018-10-19T04:20:53.735Z,36.33
2018-10-19T04:23:21.707Z,38.50
2018-10-19T04:25:49.695Z,38.27
2018-10-19T04:28:17.702Z,38.70
2018-10-19T04:30:45.685Z,38.60
2018-10-19T04:33:13.744Z,41.73
2018-10-19T04:35:41.687Z,43.02
2018-10-19T04:38:09.721Z,41.77
2018-10-19T04:40:37.706Z,41.80
2018-10-19T04:43:05.691Z,42.27
2018-10-19T04:45:33.714Z,39.23
2018-10-19T04:48:01.715Z,37.30
2018-10-19T04:50:29.714Z,40.38
2018-10-19T04:52:57.788Z,36.75
2018-10-19T04:55:25.723Z,36.17
2018-10-19T04:57:53.711Z,37.15
2018-10-19T05:00:22.000Z,38.78
2018-10-19T05:02:50.900Z,39.63
2018-10-19T05:05:19.002Z,36.42
2018-10-19T05:07:46.890Z,40.23
2018-10-19T05:10:14.883Z,37.08
2018-10-19T05:12:42.984Z,42.62
2018-10-19T05:15:11.638Z,37.95
2018-10-19T05:17:39.641Z,39.55
2018-10-19T05:20:10.518Z,38.93
2018-10-19T05:22:38.666Z,42.50
2018-10-19T05:25:07.334Z,47.13
2018-10-19T05:27:35.347Z,48.73
2018-10-19T05:30:03.346Z,50.40
2018-10-19T05:32:31.362Z,50.70
2018-10-19T05:35:01.155Z,48.20
2018-10-19T05:37:29.423Z,48.92
2018-10-19T05:39:57.422Z,46.50
2018-10-19T05:42:25.415Z,47.67
2018-10-19T05:44:53.414Z,46.70
2018-10-19T05:47:21.417Z,45.77
2018-10-19T05:49:49.414Z,46.70
2018-10-19T05:52:17.400Z,47.93
2018-10-19T05:54:45.416Z,48.20
2018-10-19T05:57:13.417Z,47.03
2018-10-19T05:59:41.407Z,46.10
2018-10-19T06:02:09.449Z,44.60
2018-10-19T06:04:37.395Z,51.70
2018-10-19T06:07:05.455Z,48.33
2018-10-19T06:09:33.442Z,48.77
2018-10-19T06:12:01.459Z,49.70
2018-10-19T06:14:29.433Z,46.07
2018-10-19T06:16:57.432Z,43.27
2018-10-19T06:19:25.388Z,41.93
2018-10-19T06:21:53.391Z,42.07
2018-10-19T06:24:21.370Z,41.37
2018-10-19T06:26:49.376Z,42.77
2018-10-19T06:29:17.429Z,41.50
2018-10-19T06:31:45.325Z,43.93
2018-10-19T06:34:13.310Z,47.27
2018-10-19T06:36:41.307Z,44.10
2018-10-19T06:39:10.571Z,45.00
2018-10-19T06:41:38.574Z,50.60
2018-10-19T06:44:06.986Z,45.70
2018-10-19T06:46:34.998Z,47.60
2018-10-19T06:49:02.954Z,49.60
2018-10-19T06:51:30.923Z,48.87
2018-10-19T06:53:58.907Z,49.87
2018-10-19T06:56:26.891Z,53.03
2018-10-19T06:58:54.919Z,48.40
2018-10-19T07:01:22.870Z,51.17
2018-10-19T07:03:50.950Z,52.57
2018-10-19T07:06:18.987Z,56.70
2018-10-19T07:08:47.924Z,55.97
2018-10-19T07:11:15.994Z,55.10
2018-10-19T07:13:43.977Z,52.70
2018-10-19T07:16:11.992Z,50.00
2018-10-19T07:18:40.003Z,50.47
2018-10-19T07:21:08.028Z,50.63
2018-10-19T07:23:36.046Z,51.00
2018-10-19T07:26:04.127Z,49.30
2018-10-19T07:28:32.079Z,46.47
2018-10-19T07:31:00.124Z,45.50
2018-10-19T07:33:28.136Z,44.10
2018-10-19T07:35:56.156Z,45.87
2018-10-19T07:38:24.159Z,46.27
2018-10-19T07:40:52.180Z,46.77
2018-10-19T07:43:20.171Z,42.80
2018-10-19T07:45:48.191Z,46.10
2018-10-19T07:48:16.234Z,44.70
2018-10-19T07:50:44.202Z,41.83
2018-10-19T07:53:12.251Z,42.20
2018-10-19T07:55:40.248Z,39.20
2018-10-19T07:58:08.265Z,43.27
2018-10-19T08:00:36.349Z,41.50
2018-10-19T08:03:06.278Z,41.90
2018-10-19T08:05:34.308Z,40.50
2018-10-19T08:08:02.380Z,40.23
2018-10-19T08:10:30.314Z,41.27
2018-10-19T08:12:58.311Z,39.43
2018-10-19T08:15:26.316Z,39.40
2018-10-19T08:17:54.336Z,39.33
2018-10-19T08:20:22.328Z,36.87
2018-10-19T08:22:50.335Z,35.00
2018-10-19T08:25:18.327Z,37.90
2018-10-19T08:27:46.330Z,37.27
2018-10-19T08:30:14.318Z,37.23
2018-10-19T08:32:42.332Z,36.27
2018-10-19T08:35:10.419Z,33.57
2018-10-19T08:37:38.422Z,32.13
2018-10-19T08:40:06.359Z,33.97
2018-10-19T08:42:34.362Z,33.43
2018-10-19T08:45:02.389Z,31.67
2018-10-19T08:47:30.381Z,33.50
2018-10-19T08:49:58.348Z,31.60
2018-10-19T08:52:26.373Z,30.97
2018-10-19T08:54:54.383Z,30.60
2018-10-19T08:57:22.394Z,31.67
2018-10-19T08:59:50.596Z,31.03
2018-10-19T09:02:18.588Z,34.30
2018-10-19T09:04:46.763Z,32.20
2018-10-19T09:07:14.768Z,32.10
2018-10-19T09:09:42.764Z,33.80
2018-10-19T09:12:10.778Z,35.67
2018-10-19T09:14:42.392Z,35.20
2018-10-19T09:17:10.400Z,33.60
2018-10-19T09:19:38.404Z,33.17
2018-10-19T09:22:06.415Z,33.40
2018-10-19T09:24:34.402Z,33.27
2018-10-19T09:27:02.472Z,37.13
2018-10-19T09:29:30.415Z,36.00
2018-10-19T09:31:58.396Z,36.37
2018-10-19T09:34:26.394Z,37.00
2018-10-19T09:36:54.418Z,37.80
2018-10-19T09:39:22.401Z,42.50
2018-10-19T09:41:50.434Z,40.20
2018-10-19T09:44:18.440Z,38.53
2018-10-19T09:46:46.469Z,39.10
2018-10-19T09:49:14.515Z,38.50
2018-10-19T09:51:42.718Z,44.27
2018-10-19T09:54:11.816Z,39.10
2018-10-19T09:56:39.843Z,42.20
2018-10-19T09:59:07.845Z,41.97
2018-10-19T10:01:36.330Z,41.30
2018-10-19T10:04:04.513Z,41.20
2018-10-19T10:06:32.527Z,42.20
2018-10-19T10:09:00.552Z,41.97
2018-10-19T10:11:28.523Z,45.30
2018-10-19T10:13:56.519Z,47.03
2018-10-19T10:16:24.513Z,44.23
2018-10-19T10:18:52.521Z,43.70
2018-10-19T10:21:20.524Z,45.17
2018-10-19T10:23:48.510Z,42.33
2018-10-19T10:26:16.520Z,40.10
2018-10-19T10:28:44.530Z,41.70
2018-10-19T10:31:12.620Z,41.97
2018-10-19T10:33:40.623Z,41.70
2018-10-19T10:36:08.624Z,40.20
2018-10-19T10:38:36.641Z,42.27
2018-10-19T10:41:04.811Z,41.03
2018-10-19T10:43:32.811Z,41.43
2018-10-19T10:46:00.834Z,42.77
2018-10-19T10:48:28.835Z,41.40
2018-10-19T10:50:57.069Z,38.90
2018-10-19T10:53:25.095Z,39.27
2018-10-19T10:55:53.091Z,40.10
2018-10-19T10:58:21.113Z,36.23
2018-10-19T11:00:49.095Z,37.03
2018-10-19T11:03:17.146Z,36.87
2018-10-19T11:05:45.118Z,39.80
2018-10-19T11:08:13.121Z,39.20
2018-10-19T11:10:41.119Z,40.20
2018-10-19T11:13:09.179Z,37.37
2018-10-19T11:15:37.146Z,38.27
2018-10-19T11:18:11.823Z,37.27
2018-10-19T11:20:39.819Z,39.50
2018-10-19T11:23:07.825Z,38.37
2018-10-19T11:25:35.873Z,38.47
2018-10-19T11:28:03.954Z,37.10
2018-10-19T11:30:31.952Z,39.50
2018-10-19T11:32:59.958Z,37.67
2018-10-19T11:35:27.967Z,37.63
2018-10-19T11:37:56.011Z,35.13
2018-10-19T11:40:25.974Z,38.20
2018-10-19T11:42:54.863Z,39.17
2018-10-19T11:45:23.729Z,37.57
2018-10-19T11:47:51.719Z,37.27
2018-10-19T11:50:19.743Z,39.03
2018-10-19T11:52:48.096Z,36.10
2018-10-19T11:55:16.118Z,36.93
2018-10-19T11:57:44.115Z,34.77
2018-10-19T12:02:46.695Z,38.00
2018-10-19T12:05:14.772Z,36.60
2018-10-19T12:07:42.796Z,39.37
2018-10-19T12:10:11.880Z,35.40
2018-10-19T12:12:40.291Z,35.10
2018-10-19T12:15:09.377Z,36.13
2018-10-19T12:17:37.508Z,37.53
2018-10-19T12:20:06.375Z,36.87
2018-10-19T12:22:34.383Z,35.70
2018-10-19T12:25:02.457Z,37.70
2018-10-19T12:27:30.415Z,36.03
2018-10-19T12:29:58.439Z,37.70
2018-10-19T12:32:26.571Z,37.43
2018-10-19T12:34:55.068Z,40.53
2018-10-19T12:37:23.064Z,38.37
2018-10-19T12:39:51.078Z,40.97
2018-10-19T12:42:19.080Z,42.43
2018-10-19T12:44:47.120Z,44.63
2018-10-19T12:47:20.668Z,46.70
2018-10-19T12:49:48.728Z,46.93
2018-10-19T12:52:16.726Z,46.93
2018-10-19T12:54:44.743Z,47.80
2018-10-19T12:57:12.812Z,49.43
2018-10-19T12:59:40.725Z,47.83
2018-10-19T13:02:11.654Z,49.93
2018-10-19T13:04:39.759Z,46.80
2018-10-19T13:07:08.151Z,47.37
2018-10-19T13:09:36.111Z,50.77
2018-10-19T13:12:04.245Z,49.80
2018-10-19T13:14:32.239Z,49.27
2018-10-19T13:17:00.310Z,50.80
2018-10-19T13:19:28.303Z,49.80
2018-10-19T13:21:56.464Z,49.43
2018-10-19T13:24:25.005Z,49.53
2018-10-19T13:26:53.022Z,48.27
2018-10-19T13:29:21.012Z,48.73
2018-10-19T13:31:49.047Z,50.70
2018-10-19T13:34:17.072Z,47.70
2018-10-19T13:36:45.177Z,49.80
2018-10-19T13:39:13.879Z,48.50
2018-10-19T13:41:42.333Z,49.60
2018-10-19T13:44:10.715Z,49.17
2018-10-19T13:46:38.861Z,49.33
2018-10-19T13:49:06.933Z,49.87
2018-10-19T13:51:35.489Z,49.47
2018-10-19T13:54:03.885Z,49.13
2018-10-19T13:56:32.353Z,49.67
2018-10-19T13:59:00.427Z,48.33
2018-10-19T14:01:28.666Z,49.50
2018-10-19T14:03:56.963Z,46.70
2018-10-19T14:06:25.187Z,48.00
2018-10-19T14:08:53.392Z,47.13
2018-10-19T14:11:21.417Z,45.27
2018-10-19T14:13:49.427Z,46.77
2018-10-19T14:16:17.451Z,43.60
2018-10-19T14:18:45.467Z,44.73
2018-10-19T14:21:13.570Z,43.60
2018-10-19T14:23:41.493Z,43.87
2018-10-19T14:26:09.542Z,42.20
2018-10-19T14:28:37.551Z,42.10
2018-10-19T14:31:05.574Z,42.30
2018-10-19T14:33:33.835Z,37.97
2018-10-19T14:36:01.772Z,39.57
2018-10-19T14:38:33.228Z,35.20
2018-10-19T14:41:01.280Z,34.33
2018-10-19T14:43:30.027Z,35.23
2018-10-19T14:45:58.073Z,34.13
2018-10-19T14:48:26.065Z,36.90
2018-10-19T14:50:54.072Z,36.10
2018-10-19T14:53:22.187Z,35.67
2018-10-19T14:55:50.193Z,40.37
2018-10-19T14:58:18.175Z,37.20
2018-10-19T15:00:46.192Z,40.97
2018-10-19T15:03:14.724Z,38.63
2018-10-19T15:05:42.724Z,44.67
2018-10-19T15:08:10.731Z,43.30
2018-10-19T15:10:39.004Z,42.97
2018-10-19T15:13:06.754Z,42.97
2018-10-19T15:15:34.762Z,46.00
2018-10-19T15:18:02.843Z,46.90
2018-10-19T15:20:30.817Z,48.80
2018-10-19T15:22:58.815Z,46.93
2018-10-19T15:25:26.854Z,46.10
2018-10-19T15:27:54.975Z,48.50
2018-10-19T15:30:23.057Z,48.20
2018-10-19T15:32:51.017Z,48.17
2018-10-19T15:35:19.064Z,48.50
2018-10-19T15:37:47.061Z,46.33
2018-10-19T15:40:15.052Z,48.77
2018-10-19T15:42:43.070Z,48.07
2018-10-19T15:45:12.263Z,47.97
2018-10-19T15:47:40.232Z,49.43
2018-10-19T15:50:08.513Z,49.80
2018-10-19T15:52:36.597Z,47.00
2018-10-19T15:55:05.007Z,48.63
2018-10-19T15:57:33.017Z,46.93
2018-10-19T16:00:01.097Z,49.43
2018-10-19T16:02:29.083Z,49.37
2018-10-19T16:04:57.879Z,49.27
2018-10-19T16:07:25.898Z,51.60
2018-10-19T16:09:53.867Z,47.33
2018-10-19T16:12:21.878Z,50.13
2018-10-19T16:14:49.894Z,49.07
2018-10-19T16:17:17.911Z,50.00
2018-10-19T16:19:45.899Z,51.77
2018-10-19T16:22:13.907Z,52.00
2018-10-19T16:24:41.913Z,51.00
2018-10-19T16:27:09.947Z,49.67
2018-10-19T16:29:38.036Z,49.70
2018-10-19T16:32:06.079Z,52.20
2018-10-19T16:34:34.126Z,53.57
2018-10-19T16:37:02.163Z,50.93
2018-10-19T16:39:30.174Z,51.60
2018-10-19T16:41:58.369Z,53.17
2018-10-19T16:44:26.349Z,54.73
2018-10-19T16:46:54.475Z,53.47
2018-10-19T16:49:22.513Z,55.00
2018-10-19T16:51:50.516Z,53.33
2018-10-19T16:54:18.666Z,56.10
2018-10-19T16:56:46.606Z,56.50
2018-10-19T16:59:14.635Z,56.03
2018-10-19T17:01:42.644Z,56.77
2018-10-19T17:04:10.726Z,53.77
2018-10-19T17:06:38.895Z,59.20
2018-10-19T17:09:08.407Z,57.40
2018-10-19T17:11:36.385Z,54.77
2018-10-19T17:14:04.427Z,50.80
2018-10-19T17:16:32.464Z,56.53
2018-10-19T17:19:00.477Z,58.50
2018-10-19T17:21:28.542Z,56.37
2018-10-19T17:23:56.601Z,58.37
2018-10-19T17:26:24.656Z,52.57
2018-10-19T17:28:52.671Z,56.00
2018-10-19T17:31:20.708Z,54.10
2018-10-19T17:33:48.912Z,55.60
2018-10-19T17:36:16.748Z,57.00
2018-10-19T17:38:44.760Z,55.63
2018-10-19T17:41:12.802Z,54.87
2018-10-19T17:43:40.797Z,54.77
2018-10-19T17:46:08.811Z,52.80
2018-10-19T17:48:36.834Z,54.33
2018-10-19T17:51:04.916Z,59.40
2018-10-19T17:53:32.880Z,55.67
2018-10-19T17:56:00.915Z,60.27
2018-10-19T17:58:28.921Z,54.43
2018-10-19T18:00:56.919Z,54.60
2018-10-19T18:03:26.155Z,54.70
2018-10-19T18:05:54.283Z,54.43
2018-10-19T18:08:22.279Z,58.57
2018-10-19T18:10:50.296Z,54.40
2018-10-19T18:13:18.311Z,56.97
2018-10-19T18:15:46.344Z,54.50
2018-10-19T18:18:14.332Z,57.07
2018-10-19T18:20:42.323Z,58.23
2018-10-19T18:23:10.523Z,60.63
2018-10-19T18:25:38.344Z,56.13
2018-10-19T18:28:06.375Z,56.80
2018-10-19T18:30:34.381Z,53.83
2018-10-19T18:33:02.403Z,54.93
2018-10-19T18:35:30.489Z,56.90
2018-10-19T18:37:58.471Z,57.53
2018-10-19T18:40:26.452Z,57.43
2018-10-19T18:42:54.467Z,57.37
2018-10-19T18:45:22.480Z,58.13
2018-10-19T18:47:50.522Z,56.97
2018-10-19T18:50:18.569Z,54.50
2018-10-19T18:52:46.526Z,56.07
2018-10-19T18:55:14.674Z,59.63
2018-10-19T18:57:42.572Z,59.87
2018-10-19T19:00:11.222Z,54.27
2018-10-19T19:02:39.453Z,56.17
2018-10-19T19:05:07.672Z,59.20
2018-10-19T19:07:35.713Z,57.47
2018-10-19T19:10:09.108Z,61.67
2018-10-19T19:12:37.119Z,57.97
2018-10-19T19:15:05.706Z,60.17
2018-10-19T19:17:33.749Z,59.40
2018-10-19T19:20:07.184Z,57.97
2018-10-19T19:22:35.292Z,59.77
2018-10-19T19:25:08.791Z,58.40
2018-10-19T19:27:36.848Z,54.63
2018-10-19T19:30:05.242Z,60.93
2018-10-19T19:32:33.273Z,57.63
2018-10-19T19:35:01.320Z,55.50
2018-10-19T19:37:29.324Z,54.43
2018-10-19T19:39:57.345Z,55.07
2018-10-19T19:42:30.656Z,52.87
2018-10-19T19:44:58.664Z,58.03
2018-10-19T19:47:32.169Z,57.93
2018-10-19T19:50:00.745Z,52.70
2018-10-19T19:52:28.745Z,52.93
2018-10-19T19:54:56.800Z,54.93
2018-10-19T19:57:24.840Z,54.10
2018-10-19T19:59:53.187Z,52.10
2018-10-19T20:02:21.243Z,55.17
2018-10-19T20:04:49.298Z,51.40
2018-10-19T20:07:17.319Z,51.00
2018-10-19T20:09:45.630Z,51.63
2018-10-19T20:12:13.656Z,50.20
2018-10-19T20:14:41.586Z,51.80
2018-10-19T20:17:09.642Z,50.50
2018-10-19T20:19:37.555Z,50.70
2018-10-19T20:22:05.635Z,50.17
2018-10-19T20:24:33.618Z,49.60
2018-10-19T20:27:01.603Z,47.83
2018-10-19T20:29:29.616Z,49.50
2018-10-19T20:31:57.687Z,50.13
2018-10-19T20:34:25.663Z,52.30
2018-10-19T20:36:53.650Z,51.90
2018-10-19T20:39:21.657Z,53.77
2018-10-19T20:41:49.646Z,49.90
2018-10-19T20:44:17.808Z,48.67
2018-10-19T20:46:45.632Z,52.83
2018-10-19T20:49:13.632Z,50.00
2018-10-19T20:51:41.606Z,47.80
2018-10-19T20:54:09.587Z,50.60
2018-10-19T20:56:37.578Z,47.43
2018-10-19T20:59:05.619Z,48.30
2018-10-19T21:01:33.544Z,50.50
2018-10-19T21:04:01.544Z,49.87
2018-10-19T21:06:29.531Z,47.90
2018-10-19T21:08:57.522Z,49.70
2018-10-19T21:11:25.502Z,49.30
2018-10-19T21:13:53.520Z,47.87
2018-10-19T21:16:21.663Z,52.90
2018-10-19T21:18:49.651Z,51.70
2018-10-19T21:21:17.626Z,50.40
2018-10-19T21:23:45.619Z,50.30
2018-10-19T21:26:13.658Z,52.40
2018-10-19T21:28:41.607Z,50.40
2018-10-19T21:31:09.594Z,51.63
2018-10-19T21:33:37.569Z,52.73
2018-10-19T21:36:05.594Z,51.23
2018-10-19T21:38:33.548Z,52.77
2018-10-19T21:41:01.645Z,56.70
2018-10-19T21:43:29.529Z,59.27
2018-10-19T21:45:57.539Z,54.53
2018-10-19T21:48:25.518Z,51.97
2018-10-19T21:50:53.514Z,53.13
2018-10-19T21:53:21.482Z,51.93
2018-10-19T21:55:49.470Z,49.57
2018-10-19T21:58:17.446Z,48.03
2018-10-19T22:00:45.443Z,49.17
2018-10-19T22:03:13.438Z,45.70
2018-10-19T22:05:41.430Z,48.67
2018-10-19T22:08:09.417Z,49.30
2018-10-19T22:10:37.402Z,49.10
2018-10-19T22:13:05.440Z,49.07
2018-10-19T22:15:33.378Z,48.20
2018-10-19T22:18:01.371Z,46.77
2018-10-19T22:20:29.345Z,47.53
2018-10-19T22:22:57.379Z,46.10
2018-10-19T22:25:25.344Z,45.90
2018-10-19T22:27:53.319Z,46.30
2018-10-19T22:30:21.311Z,45.87
2018-10-19T22:32:49.441Z,47.50
2018-10-19T22:35:17.550Z,46.77
2018-10-19T22:37:45.443Z,47.20
2018-10-19T22:40:13.453Z,47.93
2018-10-19T22:42:41.443Z,45.97
2018-10-19T22:45:09.564Z,47.20
2018-10-19T22:47:37.550Z,46.10
2018-10-19T22:50:05.538Z,52.47
2018-10-19T22:52:33.530Z,54.17
2018-10-19T22:55:01.610Z,51.57
2018-10-19T22:57:29.535Z,50.83
2018-10-19T22:59:57.552Z,52.30
2018-10-19T23:02:25.530Z,50.47
2018-10-19T23:04:53.573Z,47.10
2018-10-19T23:07:21.535Z,47.83
2018-10-19T23:09:49.510Z,47.67
2018-10-19T23:12:17.507Z,51.90
2018-10-19T23:14:45.490Z,48.27
2018-10-19T23:17:13.542Z,50.27
2018-10-19T23:19:41.462Z,44.67
2018-10-19T23:22:09.459Z,46.90
2018-10-19T23:24:37.432Z,45.80
2018-10-19T23:27:05.471Z,49.40
2018-10-19T23:29:33.456Z,48.23
2018-10-19T23:32:01.436Z,48.00
2018-10-19T23:34:29.410Z,50.30
2018-10-19T23:36:57.452Z,52.50
2018-10-19T23:39:25.385Z,49.90
2018-10-19T23:41:53.382Z,50.57
2018-10-19T23:44:21.376Z,45.20
2018-10-19T23:46:49.361Z,47.03
2018-10-19T23:49:17.374Z,50.83
2018-10-19T23:51:45.340Z,47.63
2018-10-19T23:54:13.307Z,47.83
2018-10-19T23:56:41.307Z,52.00
2018-10-19T23:59:09.364Z,50.57
